Time;durP1;ratioP1;P1;durP2;ratioP2;P2;SDS_P1;SDS_P2;PMS_P1;PMS_P2;Temp;Humidity;BMP_temperature;BMP_pressure;BME280_temperature;BME280_humidity;BME280_pressure;Samples;Min_cycle;Max_cycle;Signal;HPM_P1;HPM_P2
2023/12/06 00:00:47;;;;;;;0.70;0.70;;;;;;;3.05;100.00;100143.69;5013951;28;20623;-76
2023/12/06 00:03:14;;;;;;;2.03;2.03;;;;;;;3.07;100.00;100161.72;5013973;28;20193;-76
2023/12/06 00:05:40;;;;;;;1.53;1.50;;;;;;;2.97;100.00;100134.78;5013866;28;20204;-76
2023/12/06 00:08:07;;;;;;;1.70;1.53;;;;;;;2.82;100.00;100108.47;5014089;28;20200;-76
2023/12/06 00:10:34;;;;;;;1.73;1.63;;;;;;;3.13;100.00;100155.19;5014068;28;20208;-76
2023/12/06 00:13:02;;;;;;;1.20;1.20;;;;;;;3.25;100.00;100155.72;5013563;28;20216;-77
2023/12/06 00:15:29;;;;;;;1.13;1.13;;;;;;;3.24;100.00;100141.16;5013465;28;20208;-77
2023/12/06 00:17:55;;;;;;;1.33;1.33;;;;;;;3.44;100.00;100160.84;4979242;28;20236;-77
2023/12/06 00:20:22;;;;;;;1.13;1.13;;;;;;;3.34;100.00;100134.75;5013426;28;20236;-75
2023/12/06 00:22:49;;;;;;;1.40;1.40;;;;;;;3.56;100.00;100154.53;4978751;28;20215;-76
2023/12/06 00:25:16;;;;;;;1.53;1.53;;;;;;;3.60;100.00;100161.53;4994895;28;20212;-77
2023/12/06 00:27:43;;;;;;;1.33;1.33;;;;;;;3.56;100.00;100164.78;5013472;28;20267;-76
2023/12/06 00:30:12;;;;;;;1.20;1.20;;;;;;;3.70;100.00;100168.81;5013493;28;20207;-76
2023/12/06 00:32:39;;;;;;;2.27;2.17;;;;;;;3.73;100.00;100171.50;4995055;28;20204;-76
2023/12/06 00:35:09;;;;;;;4.40;1.57;;;;;;;3.84;100.00;100183.09;5013412;28;20201;-76
2023/12/06 00:37:35;;;;;;;1.50;1.50;;;;;;;3.80;100.00;100170.97;5013234;28;20243;-76
2023/12/06 00:40:02;;;;;;;1.30;1.30;;;;;;;3.97;100.00;100175.13;5013372;28;20642;-76
2023/12/06 00:42:29;;;;;;;1.67;1.57;;;;;;;3.98;100.00;100166.63;5013191;28;20684;-76
2023/12/06 00:44:56;;;;;;;1.70;1.37;;;;;;;3.99;100.00;100168.38;5013407;28;20205;-76
2023/12/06 00:47:24;;;;;;;1.40;1.30;;;;;;;3.96;100.00;100170.78;5013015;28;20205;-76
2023/12/06 00:49:51;;;;;;;0.87;0.87;;;;;;;3.88;100.00;100164.47;5013144;28;20585;-76
2023/12/06 00:52:18;;;;;;;1.20;1.20;;;;;;;3.93;100.00;100168.09;5012800;28;20204;-76
2023/12/06 00:54:45;;;;;;;8.67;2.17;;;;;;;3.94;100.00;100165.59;5013487;28;20639;-76
2023/12/06 00:57:12;;;;;;;1.17;1.17;;;;;;;3.89;100.00;100150.81;5013017;28;20287;-75
2023/12/06 00:59:39;;;;;;;1.83;1.73;;;;;;;4.05;100.00;100168.63;5012619;28;20223;-76
2023/12/06 01:02:05;;;;;;;1.40;1.40;;;;;;;4.09;100.00;100151.66;5012547;28;20205;-75
2023/12/06 01:04:36;;;;;;;1.13;1.13;;;;;;;4.13;100.00;100144.19;5012246;28;20298;-76
2023/12/06 01:07:03;;;;;;;36.70;1.57;;;;;;;4.05;100.00;100132.72;5011750;28;20262;-76
2023/12/06 01:09:30;;;;;;;1.80;1.73;;;;;;;4.19;100.00;100146.97;5011967;28;20716;-75
2023/12/06 01:11:58;;;;;;;2.57;2.40;;;;;;;4.13;100.00;100138.16;5012045;28;20592;-75
2023/12/06 01:14:25;;;;;;;1.33;1.33;;;;;;;4.00;100.00;100129.06;5011474;28;20657;-75
2023/12/06 01:16:51;;;;;;;1.20;1.20;;;;;;;4.16;100.00;100146.88;5012517;28;20215;-75
2023/12/06 01:19:18;;;;;;;1.00;1.00;;;;;;;4.28;100.00;100139.66;5012408;28;20239;-75
2023/12/06 01:21:47;;;;;;;1.50;1.50;;;;;;;4.30;100.00;100143.16;5011524;28;20209;-75
2023/12/06 01:24:13;;;;;;;2.20;2.00;;;;;;;3.90;100.00;100111.53;5011782;28;20201;-75
2023/12/06 01:26:40;;;;;;;3.30;2.60;;;;;;;4.17;100.00;100137.47;5012583;28;20218;-75
2023/12/06 01:29:08;;;;;;;1.07;1.07;;;;;;;3.83;100.00;100130.06;5012355;28;20212;-75
2023/12/06 01:31:34;;;;;;;1.00;1.00;;;;;;;3.83;100.00;100099.28;5011844;28;20205;-75
2023/12/06 01:34:02;;;;;;;1.07;1.07;;;;;;;4.08;100.00;100127.69;5011903;28;20213;-76
2023/12/06 01:36:28;;;;;;;1.00;1.00;;;;;;;3.99;100.00;100124.78;5012216;28;20199;-75
2023/12/06 01:38:57;;;;;;;0.80;0.80;;;;;;;4.20;100.00;100122.22;5012310;28;20311;-75
2023/12/06 01:41:23;;;;;;;1.23;1.23;;;;;;;4.20;100.00;100120.53;5011972;28;20603;-75
2023/12/06 01:43:50;;;;;;;0.90;0.90;;;;;;;4.12;100.00;100116.75;5011205;28;20208;-75
2023/12/06 01:46:17;;;;;;;2.73;1.53;;;;;;;4.18;100.00;100124.69;5010808;28;20197;-75
2023/12/06 01:48:44;;;;;;;1.00;1.00;;;;;;;4.10;100.00;100118.41;5010852;28;20201;-75
2023/12/06 01:51:12;;;;;;;1.30;1.30;;;;;;;4.07;100.00;100107.13;5011116;28;20196;-75
2023/12/06 01:53:40;;;;;;;0.90;0.90;;;;;;;3.91;100.00;100098.81;5011216;28;20228;-75
2023/12/06 01:56:09;;;;;;;1.43;1.43;;;;;;;4.03;100.00;100115.50;5011980;28;20245;-75
2023/12/06 01:58:38;;;;;;;0.90;0.90;;;;;;;3.80;100.00;100088.91;5012132;28;20612;-76
2023/12/06 02:01:06;;;;;;;0.80;0.80;;;;;;;3.89;100.00;100094.41;4978602;28;20212;-76
2023/12/06 02:03:33;;;;;;;1.33;1.33;;;;;;;3.88;100.00;100087.53;5011707;28;20645;-76
2023/12/06 02:06:00;;;;;;;1.57;1.57;;;;;;;3.91;100.00;100097.91;5011751;28;20205;-75
2023/12/06 02:08:27;;;;;;;1.33;1.33;;;;;;;3.94;100.00;100088.66;5011865;28;20246;-76
2023/12/06 02:10:54;;;;;;;4.17;1.97;;;;;;;3.98;100.00;100090.53;5011964;28;20259;-76
2023/12/06 02:13:22;;;;;;;1.70;1.70;;;;;;;3.72;100.00;100049.25;5011315;28;20204;-76
2023/12/06 02:15:50;;;;;;;0.90;0.90;;;;;;;3.83;100.00;100083.91;5011217;28;20213;-76
2023/12/06 02:18:17;;;;;;;2.13;2.03;;;;;;;3.62;100.00;100076.19;4992763;28;20607;-76
2023/12/06 02:20:44;;;;;;;0.80;0.80;;;;;;;3.45;100.00;100079.72;5011971;28;20205;-76
2023/12/06 02:23:14;;;;;;;1.00;1.00;;;;;;;3.47;100.00;100078.97;5011089;28;20258;-76
2023/12/06 02:25:42;;;;;;;2.77;1.83;;;;;;;2.87;100.00;100050.69;5011522;28;20272;-75
2023/12/06 02:28:09;;;;;;;1.60;1.50;;;;;;;2.81;100.00;100060.66;5011201;28;20212;-76
2023/12/06 02:30:36;;;;;;;1.80;1.80;;;;;;;2.82;100.00;100057.25;5011437;28;20208;-75
2023/12/06 02:33:03;;;;;;;1.13;1.13;;;;;;;2.87;100.00;100060.91;5011087;28;20212;-75
2023/12/06 02:35:34;;;;;;;0.80;0.80;;;;;;;2.69;100.00;100058.41;5011481;28;20201;-76
2023/12/06 02:38:02;;;;;;;1.00;1.00;;;;;;;2.76;100.00;100057.88;5010921;28;20236;-76
2023/12/06 02:40:32;;;;;;;1.10;1.10;;;;;;;3.01;100.00;100049.59;5010974;28;20232;-76
2023/12/06 02:43:00;;;;;;;0.87;0.87;;;;;;;3.13;100.00;100045.03;5010706;28;20211;-76
2023/12/06 02:45:27;;;;;;;0.80;0.80;;;;;;;3.04;100.00;100057.41;4992733;28;20196;-76
2023/12/06 02:47:54;;;;;;;2.20;2.00;;;;;;;2.86;100.00;100061.72;5010678;28;20255;-75
2023/12/06 02:50:21;;;;;;;2.50;2.40;;;;;;;2.76;100.00;100054.44;4991700;28;20204;-76
2023/12/06 02:52:48;;;;;;;1.93;1.83;;;;;;;2.87;100.00;100063.47;5010001;28;20212;-75
2023/12/06 02:55:15;;;;;;;1.20;1.20;;;;;;;2.79;100.00;100052.00;4972757;28;20208;-76
2023/12/06 02:57:41;;;;;;;1.00;1.00;;;;;;;2.87;100.00;100050.69;5009305;28;20552;-75
2023/12/06 03:00:11;;;;;;;1.83;1.80;;;;;;;2.94;100.00;100053.59;5010489;28;20611;-75
2023/12/06 03:02:37;;;;;;;2.30;2.20;;;;;;;2.89;100.00;100049.09;5010380;28;20221;-75
2023/12/06 03:05:05;;;;;;;2.10;1.83;;;;;;;3.11;100.00;100056.00;5010936;28;20242;-76
2023/12/06 03:07:31;;;;;;;2.53;2.03;;;;;;;2.92;100.00;100033.84;5010438;28;20205;-75
2023/12/06 03:09:58;;;;;;;1.83;1.83;;;;;;;3.11;100.00;100067.13;5010636;28;20204;-75
2023/12/06 03:12:25;;;;;;;2.27;2.13;;;;;;;3.20;100.00;100064.09;5010307;28;20272;-76
2023/12/06 03:14:52;;;;;;;1.33;1.33;;;;;;;3.28;100.00;100068.72;5010885;28;20572;-76
2023/12/06 03:17:20;;;;;;;1.10;1.10;;;;;;;3.21;100.00;100064.16;5010729;28;20205;-76
2023/12/06 03:19:47;;;;;;;1.40;1.40;;;;;;;3.30;100.00;100059.44;5010442;28;20759;-76
2023/12/06 03:22:14;;;;;;;1.17;1.17;;;;;;;3.44;100.00;100063.47;5010616;28;20233;-76
2023/12/06 03:24:41;;;;;;;1.93;1.17;;;;;;;3.51;100.00;100059.47;5010736;28;20203;-75
2023/12/06 03:27:07;;;;;;;1.20;1.20;;;;;;;3.57;100.00;100054.59;5013497;28;20201;-75
2023/12/06 03:29:34;;;;;;;0.80;0.80;;;;;;;3.36;100.00;100039.19;5018926;28;20200;-75
2023/12/06 03:32:01;;;;;;;0.90;0.90;;;;;;;3.51;100.00;100049.22;5016900;28;20216;-75
2023/12/06 03:34:29;;;;;;;1.10;1.10;;;;;;;3.49;100.00;100036.38;5030030;28;20226;-75
2023/12/06 03:36:56;;;;;;;1.63;1.53;;;;;;;3.59;100.00;100049.56;5030293;28;20860;-76
2023/12/06 03:39:22;;;;;;;2.17;1.80;;;;;;;3.59;100.00;100047.00;5013296;28;20232;-76
2023/12/06 03:41:50;;;;;;;1.53;1.33;;;;;;;3.60;100.00;100054.75;5012475;28;20766;-76
2023/12/06 03:44:16;;;;;;;1.43;1.43;;;;;;;3.56;100.00;100046.88;5014006;28;20211;-76
2023/12/06 03:46:43;;;;;;;2.43;2.33;;;;;;;3.47;100.00;100044.78;5013935;28;20208;-76
2023/12/06 03:49:10;;;;;;;0.90;0.90;;;;;;;3.35;100.00;100040.00;5013803;28;20205;-76
2023/12/06 03:51:38;;;;;;;1.47;1.47;;;;;;;2.91;100.00;99934.78;5013421;28;20599;-76
2023/12/06 03:54:05;;;;;;;1.57;1.57;;;;;;;3.53;100.00;100052.75;5027369;28;20213;-76
2023/12/06 03:56:32;;;;;;;1.33;1.33;;;;;;;3.40;100.00;100024.84;5034396;28;20231;-77
2023/12/06 03:58:59;;;;;;;1.03;1.03;;;;;;;3.13;100.00;100034.78;5014544;28;20228;-75
2023/12/06 04:01:25;;;;;;;1.63;1.63;;;;;;;3.06;100.00;100032.78;5014471;28;20211;-75
2023/12/06 04:03:52;;;;;;;1.00;1.00;;;;;;;3.09;100.00;100055.94;5013950;28;20267;-76
2023/12/06 04:06:19;;;;;;;1.20;1.20;;;;;;;3.14;100.00;100045.91;5014467;28;20665;-76
2023/12/06 04:08:47;;;;;;;1.33;1.33;;;;;;;3.24;100.00;100023.31;5014065;28;20603;-75
2023/12/06 04:11:14;;;;;;;2.63;1.43;;;;;;;3.75;100.00;100047.69;5013236;28;20447;-76
2023/12/06 04:13:41;;;;;;;2.97;2.47;;;;;;;3.45;100.00;100023.34;5013774;28;20209;-76
2023/12/06 04:16:08;;;;;;;1.43;1.43;;;;;;;3.40;100.00;100030.84;5013985;28;20258;-76
2023/12/06 04:18:36;;;;;;;1.60;1.60;;;;;;;3.44;100.00;100042.09;5013449;28;20239;-75
2023/12/06 04:21:03;;;;;;;0.90;0.90;;;;;;;2.69;100.00;99915.06;5012372;28;20204;-75
2023/12/06 04:23:29;;;;;;;2.60;2.50;;;;;;;3.33;100.00;100027.94;5012265;28;20196;-76
2023/12/06 04:25:58;;;;;;;1.30;1.30;;;;;;;3.34;100.00;100012.66;5012416;28;20204;-77
2023/12/06 04:28:24;;;;;;;2.50;1.53;;;;;;;3.56;100.00;100044.31;5012501;28;20205;-75
2023/12/06 04:30:50;;;;;;;0.73;0.73;;;;;;;3.47;100.00;100052.47;5012600;28;20213;-76
2023/12/06 04:33:17;;;;;;;0.90;0.90;;;;;;;3.39;100.00;100020.50;5011918;28;20205;-75
2023/12/06 04:35:44;;;;;;;1.10;1.10;;;;;;;3.62;100.00;100062.50;5012316;28;20591;-75
2023/12/06 04:38:11;;;;;;;0.90;0.90;;;;;;;3.25;100.00;100037.84;5011866;28;20205;-74
2023/12/06 04:40:37;;;;;;;2.17;2.07;;;;;;;3.44;100.00;100067.72;5011836;28;20279;-74
2023/12/06 04:43:06;;;;;;;0.97;0.97;;;;;;;3.02;100.00;99974.53;5011572;28;20224;-75
2023/12/06 04:45:33;;;;;;;1.70;1.47;;;;;;;3.35;100.00;100064.78;5011982;28;20216;-75
2023/12/06 04:48:00;;;;;;;1.13;1.13;;;;;;;3.40;100.00;100065.84;5013470;28;20224;-75
2023/12/06 04:50:27;;;;;;;2.93;2.07;;;;;;;3.41;100.00;100068.47;5019987;28;20235;-75
2023/12/06 04:52:53;;;;;;;1.77;1.70;;;;;;;3.40;100.00;100065.84;5009741;28;20570;-75
2023/12/06 04:55:20;;;;;;;1.13;1.13;;;;;;;3.29;100.00;100067.94;5011876;28;20623;-75
2023/12/06 04:57:47;;;;;;;2.80;2.70;;;;;;;3.32;100.00;100070.63;4993267;28;20584;-75
2023/12/06 05:00:17;;;;;;;1.30;1.30;;;;;;;3.37;100.00;100040.97;4993451;28;20248;-75
2023/12/06 05:02:44;;;;;;;1.97;1.87;;;;;;;3.39;100.00;100069.19;5011605;28;20193;-76
2023/12/06 05:05:12;;;;;;;1.10;1.10;;;;;;;3.23;100.00;100041.19;5011863;28;20192;-76
2023/12/06 05:07:39;;;;;;;2.60;2.40;;;;;;;3.17;100.00;100052.06;5011422;28;20305;-75
2023/12/06 05:10:07;;;;;;;1.37;1.20;;;;;;;3.44;100.00;100055.78;5011406;28;20201;-75
2023/12/06 05:12:34;;;;;;;0.90;0.90;;;;;;;3.48;100.00;100060.22;5011095;28;20201;-75
2023/12/06 05:15:01;;;;;;;1.83;1.77;;;;;;;3.41;100.00;100050.53;5011413;28;20756;-76
2023/12/06 05:17:29;;;;;;;1.83;1.73;;;;;;;3.42;100.00;100034.31;5011539;28;20572;-76
2023/12/06 05:19:56;;;;;;;1.00;1.00;;;;;;;3.38;100.00;100046.97;4968186;28;1266303;-76
2023/12/06 05:22:23;;;;;;;1.03;1.03;;;;;;;3.54;100.00;100053.59;5012160;28;20204;-76
2023/12/06 05:24:49;;;;;;;1.30;1.30;;;;;;;3.53;100.00;100046.75;5012276;28;20211;-76
2023/12/06 05:27:17;;;;;;;3.83;2.63;;;;;;;3.50;100.00;100032.97;5011974;28;20197;-76
2023/12/06 05:29:44;;;;;;;1.00;1.00;;;;;;;3.48;100.00;100044.84;5012271;28;20670;-76
2023/12/06 05:32:11;;;;;;;1.00;1.00;;;;;;;3.49;100.00;100045.75;5011867;28;20578;-76
2023/12/06 05:34:39;;;;;;;2.40;2.30;;;;;;;3.63;100.00;100044.63;5011717;28;20207;-76
2023/12/06 05:37:07;;;;;;;0.97;0.97;;;;;;;3.65;100.00;100047.22;4993670;28;20230;-76
2023/12/06 05:39:36;;;;;;;3.83;1.63;;;;;;;3.47;100.00;100017.47;5012010;28;20728;-76
2023/12/06 05:42:03;;;;;;;3.20;2.97;;;;;;;3.55;100.00;100029.72;5011112;28;20201;-75
2023/12/06 05:44:31;;;;;;;1.40;1.40;;;;;;;3.68;100.00;100048.25;5011840;28;20283;-75
2023/12/06 05:46:58;;;;;;;1.37;1.37;;;;;;;3.72;100.00;100044.13;4993241;28;20209;-75
2023/12/06 05:49:24;;;;;;;2.37;2.17;;;;;;;3.65;100.00;100031.84;5011331;28;20197;-75
2023/12/06 05:51:53;;;;;;;1.10;1.10;;;;;;;3.77;100.00;100063.13;5011427;28;20193;-77
2023/12/06 05:54:19;;;;;;;1.67;1.67;;;;;;;3.67;100.00;100064.47;5011864;28;20208;-78
2023/12/06 05:56:46;;;;;;;1.53;1.53;;;;;;;3.75;100.00;100063.06;5011816;28;20201;-76
2023/12/06 05:59:13;;;;;;;2.63;2.47;;;;;;;3.79;100.00;100072.63;5011607;28;20208;-75
2023/12/06 06:01:40;;;;;;;1.87;1.87;;;;;;;4.03;100.00;100056.53;5011585;28;20201;-76
2023/12/06 06:04:07;;;;;;;3.70;2.80;;;;;;;4.11;100.00;100071.38;5011589;28;20197;-76
2023/12/06 06:06:34;;;;;;;1.00;1.00;;;;;;;3.87;100.00;100055.00;5011670;28;20200;-76
2023/12/06 06:09:03;;;;;;;1.63;1.63;;;;;;;4.05;100.00;100071.16;5011353;28;20598;-76
2023/12/06 06:11:30;;;;;;;0.97;0.97;;;;;;;4.08;100.00;100076.41;5011736;28;20699;-77
2023/12/06 06:13:56;;;;;;;3.37;2.23;;;;;;;4.00;100.00;100067.50;5011418;28;20211;-76
2023/12/06 06:16:23;;;;;;;1.03;1.03;;;;;;;3.88;100.00;100061.91;5011201;28;20212;-77
2023/12/06 06:18:50;;;;;;;1.10;1.10;;;;;;;4.11;100.00;100067.94;5009709;28;20226;-78
2023/12/06 06:21:17;;;;;;;1.37;1.33;;;;;;;4.10;100.00;100046.56;5007469;28;20790;-80
2023/12/06 06:23:45;;;;;;;2.43;1.63;;;;;;;4.16;100.00;100041.66;5010458;28;20637;-77
2023/12/06 06:26:13;;;;;;;2.27;2.17;;;;;;;4.39;100.00;100068.22;5010822;28;20197;-78
2023/12/06 06:28:40;;;;;;;1.50;1.50;;;;;;;4.02;100.00;100052.19;5010823;28;20203;-77
2023/12/06 06:31:07;;;;;;;8.57;2.93;;;;;;;4.31;100.00;100083.34;5010841;28;20649;-78
2023/12/06 06:33:34;;;;;;;1.90;1.80;;;;;;;4.09;100.00;100046.50;4992647;28;20287;-77
2023/12/06 06:36:00;;;;;;;7.37;1.53;;;;;;;4.09;100.00;100078.16;5010899;28;20578;-76
2023/12/06 06:38:27;;;;;;;1.00;1.00;;;;;;;4.02;100.00;100045.38;5011190;28;20208;-78
2023/12/06 06:40:54;;;;;;;2.73;2.50;;;;;;;4.32;100.00;100082.50;5011399;28;20228;-78
2023/12/06 06:43:22;;;;;;;2.83;2.63;;;;;;;4.29;100.00;100071.25;5011664;28;20205;-78
2023/12/06 06:45:49;;;;;;;2.53;2.07;;;;;;;4.17;100.00;100066.53;5011134;28;20208;-78
2023/12/06 06:48:15;;;;;;;2.40;1.70;;;;;;;4.15;100.00;100062.13;4993060;28;20216;-78
2023/12/06 06:50:42;;;;;;;0.93;0.93;;;;;;;3.64;100.00;99972.00;5011177;28;20219;-79
2023/12/06 06:53:11;;;;;;;1.87;1.77;;;;;;;4.10;100.00;100031.19;4976692;28;20207;-78
2023/12/06 06:55:38;;;;;;;1.23;1.23;;;;;;;4.31;100.00;100064.50;5011126;28;20201;-78
2023/12/06 06:58:05;;;;;;;0.90;0.90;;;;;;;4.40;100.00;100064.84;5011176;28;20205;-79
2023/12/06 07:00:33;;;;;;;1.07;1.07;;;;;;;4.73;100.00;100066.13;5010696;28;20649;-73
2023/12/06 07:03:00;;;;;;;1.20;1.20;;;;;;;4.70;100.00;100065.16;4991903;28;20207;-72
2023/12/06 07:05:26;;;;;;;1.20;1.20;;;;;;;4.62;100.00;100066.53;5010802;28;20228;-77
2023/12/06 07:07:53;;;;;;;1.97;1.90;;;;;;;4.63;100.00;100058.91;5000140;28;20696;-76
2023/12/06 07:10:20;;;;;;;0.87;0.87;;;;;;;4.73;100.00;100067.84;5011007;28;20228;-76
2023/12/06 07:12:47;;;;;;;5.00;3.43;;;;;;;4.62;100.00;100056.28;4991032;28;20217;-76
2023/12/06 07:15:14;;;;;;;2.73;2.13;;;;;;;4.67;100.00;100057.34;4996871;28;20204;-76
2023/12/06 07:17:43;;;;;;;0.77;0.77;;;;;;;4.69;100.00;100068.53;5010304;28;20267;-74
2023/12/06 07:20:12;;;;;;;0.90;0.90;;;;;;;4.58;100.00;100074.94;4997006;28;20321;-77
2023/12/06 07:22:39;;;;;;;1.10;1.10;;;;;;;4.55;100.00;100069.69;5010345;28;20254;-76
2023/12/06 07:25:06;;;;;;;0.90;0.90;;;;;;;4.67;100.00;100062.47;4994852;28;20201;-79
2023/12/06 07:27:33;;;;;;;1.73;1.63;;;;;;;4.68;100.00;100065.09;4999297;28;20637;-79
2023/12/06 07:30:00;;;;;;;2.73;1.67;;;;;;;4.82;100.00;100073.28;5004953;28;20215;-83
2023/12/06 07:32:26;;;;;;;0.83;0.83;;;;;;;4.65;100.00;100072.66;5010796;28;20197;-80
2023/12/06 07:34:55;;;;;;;2.00;1.90;;;;;;;4.90;100.00;100077.03;5011041;28;20205;-81
2023/12/06 07:37:21;;;;;;;2.80;2.60;;;;;;;4.80;100.00;100075.81;4993277;28;20201;-80
2023/12/06 07:39:48;;;;;;;0.70;0.70;;;;;;;4.90;100.00;100046.22;5009110;28;20240;-78
2023/12/06 07:42:15;;;;;;;1.10;1.10;;;;;;;4.76;100.00;100040.56;5010756;28;20270;-79
2023/12/06 07:44:42;;;;;;;1.60;1.50;;;;;;;5.06;100.00;100071.66;5002441;28;20694;-79
2023/12/06 07:47:08;;;;;;;1.37;1.37;;;;;;;5.11;100.00;100067.53;5005502;28;20224;-78
2023/12/06 07:49:35;;;;;;;1.00;1.00;;;;;;;5.21;100.00;100069.63;5010679;28;20201;-78
2023/12/06 07:52:04;;;;;;;1.73;1.60;;;;;;;5.36;100.00;100067.59;4976303;28;20641;-84
2023/12/06 07:54:31;;;;;;;1.17;1.17;;;;;;;5.44;100.00;100065.31;5010433;28;20205;-82
2023/12/06 07:56:58;;;;;;;0.90;0.90;;;;;;;5.55;100.00;100075.97;5010688;28;20205;-82
2023/12/06 07:59:24;;;;;;;1.33;1.33;;;;;;;5.30;100.00;100077.69;5006729;28;20201;-81
2023/12/06 08:01:52;;;;;;;1.33;1.33;;;;;;;5.20;100.00;100069.59;4990873;28;20233;-80
2023/12/06 08:04:19;;;;;;;0.83;0.83;;;;;;;5.15;100.00;100077.13;5002586;28;20213;-82
2023/12/06 08:06:46;;;;;;;0.90;0.90;;;;;;;4.78;100.00;100051.75;4998901;28;20240;-80
2023/12/06 08:09:16;;;;;;;1.40;1.40;;;;;;;5.14;100.00;100075.34;5007353;28;20213;-82
2023/12/06 08:11:44;;;;;;;0.90;0.90;;;;;;;4.86;100.00;100046.91;5010477;28;20288;-82
2023/12/06 08:14:11;;;;;;;1.73;1.73;;;;;;;5.18;100.00;100084.06;5013805;28;20616;-82
2023/12/06 08:16:38;;;;;;;0.97;0.97;;;;;;;5.31;100.00;100066.59;4999854;28;20201;-82
2023/12/06 08:19:04;;;;;;;2.13;1.93;;;;;;;5.41;100.00;100063.50;5014086;28;20255;-82
2023/12/06 08:21:31;;;;;;;0.90;0.90;;;;;;;5.58;100.00;100068.34;4999555;28;20252;-81
2023/12/06 08:23:58;;;;;;;1.57;1.57;;;;;;;5.64;100.00;100066.84;5013796;28;20205;-81
2023/12/06 08:26:26;;;;;;;3.67;1.83;;;;;;;5.84;100.00;100078.72;5011482;28;20201;-78
2023/12/06 08:28:53;;;;;;;2.13;2.03;;;;;;;5.79;100.00;100079.38;5002008;28;20656;-78
2023/12/06 08:31:20;;;;;;;0.70;0.70;;;;;;;5.78;100.00;100093.06;5013468;28;20212;-77
2023/12/06 08:33:47;;;;;;;1.83;1.73;;;;;;;5.87;100.00;100089.13;5012961;28;20209;-78
2023/12/06 08:36:13;;;;;;;4.47;2.30;;;;;;;5.87;100.00;100090.84;5013123;28;20205;-77
2023/12/06 08:38:41;;;;;;;1.00;1.00;;;;;;;5.70;100.00;100071.34;5013110;28;20209;-74
2023/12/06 08:41:08;;;;;;;3.27;2.97;;;;;;;5.94;100.00;100085.94;5012878;28;20220;-77
2023/12/06 08:43:37;;;;;;;2.53;1.40;;;;;;;5.97;100.00;100088.63;5012211;28;20677;-77
2023/12/06 08:46:06;;;;;;;1.47;1.40;;;;;;;5.88;100.00;100072.88;5013589;28;20736;-77
2023/12/06 08:48:33;;;;;;;3.00;2.77;;;;;;;5.91;100.00;100090.13;5013095;28;20251;-77
2023/12/06 08:51:00;;;;;;;1.40;1.40;;;;;;;5.70;100.00;100046.50;5013061;28;20216;-77
2023/12/06 08:53:27;;;;;;;1.83;1.73;;;;;;;6.02;100.00;100086.19;4974936;28;20205;-77
2023/12/06 08:55:54;;;;;;;2.57;1.37;;;;;;;5.70;100.00;100079.94;4975315;28;20202;-77
2023/12/06 08:58:21;;;;;;;3.30;3.10;;;;;;;5.81;100.00;100088.03;5010001;28;20207;-77
2023/12/06 09:00:49;;;;;;;4.80;2.73;;;;;;;5.79;100.00;100084.50;5013185;28;20618;-78
2023/12/06 09:03:16;;;;;;;1.30;1.30;;;;;;;5.77;100.00;100081.91;5012919;28;20673;-76
2023/12/06 09:05:43;;;;;;;1.43;1.33;;;;;;;5.58;100.00;100074.38;4994285;28;20208;-75
2023/12/06 09:08:11;;;;;;;1.40;1.40;;;;;;;5.70;100.00;100074.81;5006494;28;20252;-77
2023/12/06 09:10:38;;;;;;;1.20;1.20;;;;;;;5.60;100.00;100074.44;4999844;28;20215;-78
2023/12/06 09:13:05;;;;;;;1.00;1.00;;;;;;;5.58;100.00;100076.06;5010237;28;20217;-78
2023/12/06 09:15:32;;;;;;;1.13;1.13;;;;;;;5.31;100.00;100032.28;4998691;28;20209;-79
2023/12/06 09:18:01;;;;;;;1.53;1.43;;;;;;;5.46;100.00;100054.25;5012573;28;20204;-79
2023/12/06 09:20:27;;;;;;;1.90;1.83;;;;;;;5.58;100.00;100052.91;5012500;28;20256;-79
2023/12/06 09:22:54;;;;;;;1.93;1.83;;;;;;;5.59;100.00;100052.09;4969897;28;20303;-78
2023/12/06 09:25:21;;;;;;;1.40;1.40;;;;;;;5.62;100.00;100052.19;5011935;28;20259;-79
2023/12/06 09:27:48;;;;;;;0.97;0.97;;;;;;;5.66;100.00;100042.09;4994054;28;20227;-79
2023/12/06 09:30:17;;;;;;;2.37;2.20;;;;;;;5.84;100.00;100052.09;5012768;28;20201;-79
2023/12/06 09:32:45;;;;;;;0.70;0.70;;;;;;;5.84;100.00;100036.66;5012403;28;20524;-79
2023/12/06 09:35:13;;;;;;;0.90;0.90;;;;;;;5.85;100.00;100039.28;5012297;28;20283;-79
2023/12/06 09:37:40;;;;;;;1.80;1.80;;;;;;;5.59;100.00;99998.97;5006491;28;20201;-78
2023/12/06 09:40:09;;;;;;;1.07;1.07;;;;;;;5.76;100.00;100025.25;4974641;28;20256;-79
2023/12/06 09:42:39;;;;;;;0.80;0.80;;;;;;;5.62;100.00;100029.06;4998599;28;20205;-72
2023/12/06 09:45:07;;;;;;;1.40;1.40;;;;;;;5.44;100.00;100019.03;5011662;28;20213;-72
2023/12/06 09:47:34;;;;;;;1.37;1.37;;;;;;;5.45;100.00;100016.53;5011604;28;20224;-73
2023/12/06 09:50:01;;;;;;;1.40;1.30;;;;;;;5.27;100.00;100009.88;5007651;28;20233;-74
2023/12/06 09:52:29;;;;;;;2.63;1.33;;;;;;;5.07;100.00;99980.88;5001782;28;20209;-73
2023/12/06 09:54:57;;;;;;;1.80;1.80;;;;;;;5.24;100.00;100010.66;4997714;28;20660;-73
2023/12/06 09:57:24;;;;;;;0.80;0.80;;;;;;;4.81;100.00;99964.59;5011345;28;20209;-75
2023/12/06 09:59:51;;;;;;;2.60;1.50;;;;;;;5.33;100.00;100012.63;5010872;28;20209;-77
2023/12/06 10:02:18;;;;;;;1.40;1.40;;;;;;;5.31;100.00;100010.03;5008569;28;20252;-77
2023/12/06 10:04:44;;;;;;;1.07;1.07;;;;;;;5.19;100.00;99985.59;4982311;28;20228;-78
2023/12/06 10:07:11;;;;;;;1.13;1.13;;;;;;;5.33;100.00;100004.94;4993083;28;20669;-77
2023/12/06 10:09:39;;;;;;;2.10;2.07;;;;;;;5.19;100.00;99990.72;5004955;28;20560;-78
2023/12/06 10:12:10;;;;;;;3.30;2.27;;;;;;;5.43;100.00;99989.00;5004634;28;20209;-78
2023/12/06 10:14:37;;;;;;;1.90;1.80;;;;;;;5.57;100.00;99995.47;5011228;28;20204;-77
2023/12/06 10:17:04;;;;;;;2.30;1.87;;;;;;;5.69;100.00;99987.28;5011375;28;20208;-77
2023/12/06 10:19:31;;;;;;;1.07;1.07;;;;;;;5.80;100.00;99957.66;5011648;28;20227;-78
2023/12/06 10:22:00;;;;;;;5.40;2.57;;;;;;;6.11;100.00;99970.66;5011284;28;20228;-75
2023/12/06 10:24:28;;;;;;;1.73;1.73;;;;;;;6.46;100.00;99990.63;4998115;28;20212;-78
2023/12/06 10:27:03;;;;;;;2.60;2.50;;;;;;;6.32;100.00;99966.16;5011396;28;20204;-77
2023/12/06 10:29:31;;;;;;;1.00;1.00;;;;;;;6.47;100.00;99996.66;4997717;28;20288;-77
2023/12/06 10:31:58;;;;;;;0.90;0.90;;;;;;;6.31;100.00;99968.72;5011376;28;20228;-77
2023/12/06 10:34:27;;;;;;;2.07;1.97;;;;;;;6.41;100.00;99969.03;4997434;28;20193;-77
2023/12/06 10:36:55;;;;;;;0.77;0.77;;;;;;;6.26;100.00;99975.41;5011389;28;20200;-77
2023/12/06 10:39:22;;;;;;;23.13;2.17;;;;;;;6.32;100.00;99975.59;5010992;28;20204;-76
2023/12/06 10:41:51;;;;;;;1.03;1.03;;;;;;;6.42;100.00;99987.94;5010800;28;20233;-76
2023/12/06 10:44:19;;;;;;;0.93;0.93;;;;;;;6.54;100.00;99977.09;4992514;28;20201;-76
2023/12/06 10:46:48;;;;;;;1.33;1.33;;;;;;;6.75;100.00;99973.44;5010885;28;20196;-77
2023/12/06 10:49:16;;;;;;;0.80;0.80;;;;;;;6.96;100.00;99974.03;4997072;28;20678;-77
2023/12/06 10:51:44;;;;;;;0.97;0.97;;;;;;;6.95;100.00;99958.53;5010735;28;20213;-77
2023/12/06 10:54:12;;;;;;;12.83;2.03;;;;;;;7.18;100.00;99978.06;5010729;28;20251;-77
2023/12/06 10:56:40;;;;;;;1.30;1.30;;;;;;;7.07;100.00;99945.97;4996907;28;20201;-76
2023/12/06 10:59:10;;;;;;;1.57;1.57;;;;;;;7.08;100.00;99963.19;5011123;28;20205;-75
2023/12/06 11:01:39;;;;;;;0.93;0.93;;;;;;;6.88;100.00;99929.13;5010479;28;20674;-76
2023/12/06 11:04:09;;;;;;;1.70;1.60;;;;;;;6.75;100.00;99964.84;5010694;28;20200;-73
2023/12/06 11:06:44;;;;;;;1.20;1.20;;;;;;;6.79;100.00;99964.09;5010638;28;20205;-74
2023/12/06 11:09:29;;;;;;;2.13;2.03;;;;;;;6.57;100.00;99962.59;5010518;28;20208;-74
2023/12/06 11:12:07;;;;;;;0.83;0.83;;;;;;;6.75;100.00;99969.97;4991373;28;20209;-74
2023/12/06 11:14:50;;;;;;;1.83;1.73;;;;;;;6.77;100.00;99969.22;4988115;28;20197;-74
2023/12/06 11:17:34;;;;;;;2.07;2.00;;;;;;;6.69;100.00;99962.97;4994172;28;20719;-74
2023/12/06 11:20:01;;;;;;;1.90;1.90;;;;;;;6.34;100.00;99954.22;4998631;28;20244;-73
2023/12/06 11:22:28;;;;;;;1.70;1.63;;;;;;;6.49;100.00;99964.97;5008337;28;20236;-73
2023/12/06 11:24:55;;;;;;;2.40;2.20;;;;;;;6.37;100.00;99969.75;5010401;28;20197;-75
2023/12/06 11:27:22;;;;;;;1.90;1.80;;;;;;;6.27;100.00;99966.88;5010272;28;20208;-74